createdAt,value
2018-09-19T05:01:34.834Z,1.40
2018-09-19T05:11:55.571Z,1.50
2018-09-19T05:17:20.413Z,1.80
2018-09-19T05:41:15.167Z,2.97
2018-09-19T05:46:41.691Z,2.53
2018-09-19T05:51:57.731Z,2.00
2018-09-19T05:57:07.079Z,2.30
2018-09-19T06:07:39.531Z,2.07
2018-09-19T06:12:47.238Z,1.93
2018-09-19T06:17:54.749Z,1.90
2018-09-19T06:23:30.738Z,2.10
2018-09-19T06:28:37.436Z,2.20
2018-09-19T07:29:06.810Z,2.57
2018-09-19T07:40:06.642Z,4.10
2018-09-19T10:57:26.907Z,3.13
2018-09-19T13:30:20.152Z,2.67
2018-09-19T13:41:02.443Z,3.37
2018-09-19T13:51:42.251Z,2.45
2018-09-19T14:02:51.354Z,2.35
2018-09-19T14:26:22.899Z,3.70
2018-09-19T16:56:54.642Z,2.70
2018-09-19T17:01:58.150Z,2.90
2018-09-19T17:07:02.438Z,2.78
2018-09-19T17:12:05.773Z,3.12
2018-09-19T17:17:09.099Z,2.90
2018-09-19T17:22:12.432Z,3.30
2018-09-19T17:27:15.770Z,2.80
2018-09-19T17:32:19.099Z,3.55
2018-09-19T17:37:22.468Z,3.10
2018-09-19T17:42:25.783Z,2.77
2018-09-19T17:47:29.122Z,3.53
2018-09-19T17:52:32.484Z,3.50
2018-09-19T17:57:48.586Z,3.90
2018-09-19T18:02:52.683Z,3.40
2018-09-19T18:07:56.023Z,3.93
2018-09-19T18:12:59.643Z,3.50
2018-09-19T18:18:03.358Z,3.77
2018-09-19T18:23:06.994Z,4.03
2018-09-19T18:28:11.031Z,3.90
2018-09-19T18:33:14.384Z,3.77
2018-09-19T18:38:17.998Z,3.90
2018-09-19T18:43:21.331Z,4.67
2018-09-19T18:48:24.803Z,3.90
2018-09-19T18:53:28.430Z,3.73
2018-09-19T18:58:31.867Z,3.60
2018-09-19T19:03:35.319Z,3.80
2018-09-19T19:08:38.656Z,4.27
2018-09-19T19:13:42.031Z,4.40
2018-09-19T19:18:45.427Z,4.13
2018-09-19T19:23:48.798Z,4.27
2018-09-19T19:28:52.140Z,4.20
2018-09-19T19:33:55.533Z,4.63
2018-09-19T19:38:58.859Z,4.23
2018-09-19T19:44:02.208Z,4.60
2018-09-19T19:54:41.692Z,4.47
2018-09-19T19:59:45.049Z,5.10
2018-09-19T20:04:48.377Z,4.33
2018-09-19T20:09:51.722Z,4.33
2018-09-19T20:14:55.060Z,5.13
2018-09-19T20:19:58.395Z,4.60
2018-09-19T20:25:01.737Z,4.80
2018-09-19T20:30:06.064Z,4.77
2018-09-19T20:35:09.344Z,5.20
2018-09-19T20:40:16.225Z,4.37
2018-09-19T20:45:19.555Z,5.07
2018-09-19T20:50:22.897Z,5.73
2018-09-19T20:55:26.323Z,5.10
2018-09-19T21:00:43.311Z,4.90
2018-09-19T21:05:46.679Z,4.93
2018-09-19T21:10:50.032Z,4.70
2018-09-19T21:15:53.394Z,5.67
2018-09-19T21:20:56.724Z,5.77
2018-09-19T21:26:00.054Z,5.47
2018-09-19T21:31:03.410Z,6.17
2018-09-19T21:36:06.756Z,5.53
2018-09-19T21:41:10.080Z,5.50
2018-09-19T21:46:13.411Z,5.17
2018-09-19T21:51:16.733Z,5.80
2018-09-19T21:56:20.093Z,5.00
2018-09-19T22:01:23.807Z,5.33
2018-09-19T22:06:27.135Z,5.87
2018-09-19T22:11:30.766Z,5.67
2018-09-19T22:16:34.206Z,5.73
2018-09-19T22:21:37.546Z,5.33
2018-09-19T22:26:41.636Z,4.30
